Woodbury, Pennsylvania
Current Conditions -  °F | °C
As of 7:53 PM on Friday 24 Oct 2014 (Local Time) from KAOO Reporting Station
Clear Clear  
Wind Chill: 47°   Ceiling: Unl
Heat Index: 47°   Visibility: 10mi
Dew Point: 38°   Wind: 3mph
Humidity: 71%   Direction: 140°SE
Pressure: 29.98"   Gusts: NA
Location:  40.23°N, 78.37°W
Report Text: KAOO 242353Z AUTO 14003KT 10SM CLR 08/03 A2998 RMK AO2 SLP159 T00830033 10150 20083 53007
Loading
Personal Weather Stations






























Interactive Weather Map
Tropical Storm Tracking
New forecast layout! Learn more

10-Day Weather Forecast

Advertisements
Track Severe Weather on mobile